Bostic, NC (28018)

10:17 AM EDT on March 29, 2015 (GMT -0400)
Rutherford County-Marchman | | Change Station
CLOSE
Current Station
Airport
Location: Rutherfordton,
Elevation: 1079 ft
Nearby Weather Stations
Active Advisory: Freeze Warning

Elev 1079 ft 35.43 °N, 81.94 °W | Updated 22 minutes ago

Clear
Clear
35 °F
Feels Like 30 °F
N
6
Wind Variable Wind from SSE

Today
High -- | Low -- °F
--% Chance of Precip.
Yesterday
High -- | Low -- °F
Precip. -- in
7:18 AM 7:46 PM
Waxing Gibbous, 72% visible
Pressure 30.43 in
Visibility 10.0 miles
Clouds Clear
Windchill 30 °F
Dew Point 14 °F
Humidity 42%
Rainfall 0.00 in
Snow Depth Not available.
UV 3 out of 12
Pollen 8.60 out of 12
Air Quality Not available.
Flu Activity Not available.
METAR KFQD 291355Z AUTO 16005KT 10SM CLR 02/M10 A3043 RMK AO2 T00181100

More Conditions Fewer Conditions

Pressure 30.43 in
Visibility 10.0 miles
Clouds Clear
Windchill 30 °F
Dew Point 14 °F
Humidity 42%
Rainfall 0.00 in
Snow Depth Not available.
UV 3 out of 12
Pollen 8.60 out of 12
Air Quality Not available.
Flu Activity Not available.
METAR KFQD 291355Z AUTO 16005KT 10SM CLR 02/M10 A3043 RMK AO2 T00181100

More Conditions Fewer Conditions

10-Day Weather Forecast

Almanac

Astronomy

Mar. 29, 2015 Rise Set
Actual Time
Civil Twilight
Nautical Twilight
Astronomical Twilight
Moon
Length of Visible Light
Length of Day
Tomorrow will be .
, % of the Moon is Illuminated

Today's Extremes

State Highs State Lows

Community

WunderPhotos

Upload Photos

1,809,242 photos uploaded!

WunderBlogs® & News

Nearby

Air Quality

  Air Quality AQ Index Pollutant
Not available.

Snow Depth

Station Depth Elevation

Earthquake Activity

City Distance Mag. Time & Date
Minimum magnitude displayed is 2.5.

Coastal Water Temperatures

Place Temperature

Stations

Nearby Weather Stations

Station Location Temp. Windchill Dew Point Humidity Wind Precip. Elev Updated Type
                   
Freeze Warning
Statement as of 5:44 AM EDT on March 29, 2015

... Freeze warning remains in effect until 11 am EDT this
morning...

* locations... portions of the North Carolina foothills and
Piedmont... along with far northeast Georgia... and upstate
South Carolina.

* Temperatures... lows in the lower 30s to mid 20s.

* Impacts... very cold temperatures will kill sensitive
vegetation that has already started to grow this season.

Precautionary/preparedness actions...

A freeze warning means sub-freezing temperatures are imminent or
highly likely. These conditions will kill crops and other
sensitive vegetation.



Cdg